Time;durP1;ratioP1;P1;durP2;ratioP2;P2;SDS_P1;SDS_P2;PMS_P1;PMS_P2;Temp;Humidity;BMP_temperature;BMP_pressure;BME280_temperature;BME280_humidity;BME280_pressure;Samples;Min_cycle;Max_cycle;Signal;HPM_P1;HPM_P2
2023/08/14 00:01:22;;;;;;;4.47;2.63;;;;;;;;;;5073479;28;20311;-50
2023/08/14 00:03:48;;;;;;;3.87;2.50;;;;;;;;;;5073030;28;20164;-49
2023/08/14 00:06:14;;;;;;;5.20;2.67;;;;;;;;;;5074395;28;20161;-48
2023/08/14 00:08:40;;;;;;;3.73;2.70;;;;;;;;;;5073108;28;20180;-51
2023/08/14 00:11:06;;;;;;;5.23;2.50;;;;;;;;;;5072838;28;20177;-49
2023/08/14 00:13:48;;;;;;;7.57;2.87;;;;;;;;;;5071775;28;20161;-49
2023/08/14 00:16:14;;;;;;;6.40;2.77;;;;;;;;;;5070869;28;20173;-48
2023/08/14 00:18:40;;;;;;;5.00;3.00;;;;;;;;;;5072370;28;20425;-47
2023/08/14 00:21:06;;;;;;;7.67;3.10;;;;;;;;;;5072083;28;20184;-49
2023/08/14 00:23:33;;;;;;;5.03;2.37;;;;;;;;;;5072551;28;20173;-47
2023/08/14 00:25:59;;;;;;;5.30;2.50;;;;;;;;;;5072728;28;20565;-50
2023/08/14 00:28:25;;;;;;;3.77;2.27;;;;;;;;;;5073067;28;20225;-47
2023/08/14 00:30:51;;;;;;;6.77;2.67;;;;;;;;;;5072194;28;20168;-49
2023/08/14 00:33:16;;;;;;;5.17;2.83;;;;;;;;;;5073474;28;20164;-47
2023/08/14 00:35:42;;;;;;;3.90;2.80;;;;;;;;;;5072080;28;20456;-47
2023/08/14 00:38:08;;;;;;;4.00;2.40;;;;;;;;;;5072442;28;20553;-48
2023/08/14 00:40:35;;;;;;;3.90;2.47;;;;;;;;;;5071059;28;20172;-48
2023/08/14 00:43:01;;;;;;;4.03;2.20;;;;;;;;;;5073057;28;20556;-47
2023/08/14 00:45:27;;;;;;;5.23;2.60;;;;;;;;;;5072931;28;20409;-48
2023/08/14 00:47:53;;;;;;;3.33;2.07;;;;;;;;;;5073238;28;20169;-52
2023/08/14 00:50:19;;;;;;;5.00;2.90;;;;;;;;;;5075489;28;20473;-49
2023/08/14 00:52:47;;;;;;;6.97;3.20;;;;;;;;;;5077547;28;20188;-48
2023/08/14 00:55:22;;;;;;;3.93;2.30;;;;;;;;;;5076191;28;20189;-47
2023/08/14 00:57:49;;;;;;;4.27;2.30;;;;;;;;;;5077106;28;20175;-48
2023/08/14 01:00:15;;;;;;;6.63;2.70;;;;;;;;;;5077536;28;20238;-52
2023/08/14 01:02:42;;;;;;;6.37;2.40;;;;;;;;;;5077663;28;20541;-47
2023/08/14 01:05:08;;;;;;;4.23;2.30;;;;;;;;;;5075752;28;20578;-54
2023/08/14 01:07:34;;;;;;;4.97;2.37;;;;;;;;;;5076107;28;20202;-51
2023/08/14 01:10:02;;;;;;;5.27;2.53;;;;;;;;;;5077605;28;20169;-49
2023/08/14 01:12:50;;;;;;;5.30;2.40;;;;;;;;;;5078393;28;20181;-50
2023/08/14 01:15:19;;;;;;;5.83;2.40;;;;;;;;;;5077109;28;20289;-48
2023/08/14 01:17:49;;;;;;;8.43;2.57;;;;;;;;;;5076277;28;20266;-47
2023/08/14 01:20:18;;;;;;;4.03;1.93;;;;;;;;;;5077102;28;20848;-50
2023/08/14 01:22:46;;;;;;;4.03;2.50;;;;;;;;;;5076928;28;20358;-49
2023/08/14 01:25:24;;;;;;;4.43;2.20;;;;;;;;;;5076283;28;20225;-54
2023/08/14 01:27:50;;;;;;;4.07;2.20;;;;;;;;;;5076266;28;20263;-50
2023/08/14 01:30:16;;;;;;;6.30;2.63;;;;;;;;;;5077483;28;20173;-49
2023/08/14 01:32:42;;;;;;;5.13;2.67;;;;;;;;;;5077186;28;20184;-48
2023/08/14 01:35:08;;;;;;;5.23;2.30;;;;;;;;;;5077182;28;20225;-49
2023/08/14 01:37:41;;;;;;;4.80;2.47;;;;;;;;;;5078236;28;20169;-50
2023/08/14 01:40:10;;;;;;;3.50;2.30;;;;;;;;;;5076767;28;20177;-49
2023/08/14 01:42:37;;;;;;;5.40;2.30;;;;;;;;;;5076905;28;20208;-48
2023/08/14 01:45:10;;;;;;;3.57;2.13;;;;;;;;;;5075434;28;20206;-49
2023/08/14 01:47:38;;;;;;;4.10;2.53;;;;;;;;;;5076254;28;20212;-47
2023/08/14 01:50:04;;;;;;;2.13;1.80;;;;;;;;;;5075562;28;20264;-49
2023/08/14 01:52:30;;;;;;;4.43;1.90;;;;;;;;;;5075622;28;20161;-52
2023/08/14 01:55:02;;;;;;;6.50;2.77;;;;;;;;;;5074564;28;20188;-50
2023/08/14 01:57:30;;;;;;;4.07;2.57;;;;;;;;;;5075429;28;20196;-47
2023/08/14 01:59:56;;;;;;;5.30;2.37;;;;;;;;;;5074659;28;20184;-50
2023/08/14 02:02:22;;;;;;;5.43;2.13;;;;;;;;;;5075000;28;20200;-50
2023/08/14 02:04:48;;;;;;;4.27;2.70;;;;;;;;;;5076763;28;20179;-50
2023/08/14 02:07:14;;;;;;;5.27;2.33;;;;;;;;;;5076770;28;20172;-48
2023/08/14 02:09:40;;;;;;;3.27;2.00;;;;;;;;;;5077090;28;20169;-53
2023/08/14 02:12:06;;;;;;;5.03;2.40;;;;;;;;;;5076904;28;20187;-48
2023/08/14 02:14:32;;;;;;;6.27;1.87;;;;;;;;;;5076387;28;20180;-48
2023/08/14 02:16:58;;;;;;;4.57;2.30;;;;;;;;;;5076093;28;20483;-50
2023/08/14 02:19:24;;;;;;;4.97;2.57;;;;;;;;;;5076914;28;20238;-50
2023/08/14 02:21:50;;;;;;;5.03;2.80;;;;;;;;;;5075734;28;20242;-51
2023/08/14 02:24:16;;;;;;;3.07;2.37;;;;;;;;;;5077155;28;20172;-48
2023/08/14 02:26:43;;;;;;;4.20;1.80;;;;;;;;;;5075824;28;20208;-51
2023/08/14 02:29:09;;;;;;;4.53;2.27;;;;;;;;;;5075737;28;20233;-48
2023/08/14 02:31:35;;;;;;;2.23;2.03;;;;;;;;;;5076060;28;20172;-52
2023/08/14 02:34:02;;;;;;;2.90;2.00;;;;;;;;;;5076823;28;20179;-52
2023/08/14 02:36:28;;;;;;;4.30;2.20;;;;;;;;;;5076826;28;20263;-49
2023/08/14 02:38:54;;;;;;;4.13;2.10;;;;;;;;;;5075109;28;20176;-50
2023/08/14 02:41:21;;;;;;;4.87;2.10;;;;;;;;;;5075884;28;20177;-48
2023/08/14 02:43:47;;;;;;;4.83;2.30;;;;;;;;;;5074763;28;20177;-50
2023/08/14 02:46:13;;;;;;;4.07;2.27;;;;;;;;;;5074727;28;20213;-48
2023/08/14 02:48:40;;;;;;;5.43;2.73;;;;;;;;;;5075501;28;20267;-48
2023/08/14 02:51:05;;;;;;;5.23;2.33;;;;;;;;;;5074925;28;20245;-50
2023/08/14 02:53:32;;;;;;;3.10;2.00;;;;;;;;;;5073162;28;20557;-48
2023/08/14 02:55:58;;;;;;;4.47;2.27;;;;;;;;;;5074745;28;20181;-48
2023/08/14 02:58:24;;;;;;;4.00;2.13;;;;;;;;;;5075147;28;20180;-48
2023/08/14 03:00:50;;;;;;;4.37;2.60;;;;;;;;;;5074252;28;20430;-48
2023/08/14 03:03:16;;;;;;;3.57;2.03;;;;;;;;;;5074546;28;20546;-51
2023/08/14 03:05:44;;;;;;;3.37;2.57;;;;;;;;;;5072744;28;20169;-47
2023/08/14 03:08:10;;;;;;;3.93;2.50;;;;;;;;;;5072924;28;20233;-52
2023/08/14 03:10:36;;;;;;;6.57;2.70;;;;;;;;;;5072966;28;20173;-48
2023/08/14 03:13:02;;;;;;;4.73;2.30;;;;;;;;;;5073134;28;20181;-48
2023/08/14 03:15:28;;;;;;;4.93;2.37;;;;;;;;;;5073513;28;20645;-47
2023/08/14 03:17:54;;;;;;;3.57;2.30;;;;;;;;;;5072589;28;20269;-49
2023/08/14 03:20:20;;;;;;;5.53;2.60;;;;;;;;;;5072302;28;20230;-52
2023/08/14 03:22:47;;;;;;;5.93;2.30;;;;;;;;;;5071776;28;20231;-47
2023/08/14 03:25:13;;;;;;;4.40;2.40;;;;;;;;;;5071909;28;20168;-48
2023/08/14 03:27:39;;;;;;;9.83;3.27;;;;;;;;;;5072268;28;20224;-51
2023/08/14 03:30:06;;;;;;;6.90;2.47;;;;;;;;;;5075975;28;20172;-53
2023/08/14 03:32:32;;;;;;;4.93;2.80;;;;;;;;;;5073049;28;20169;-48
2023/08/14 03:34:58;;;;;;;6.13;2.77;;;;;;;;;;5074662;28;20233;-47
2023/08/14 03:37:24;;;;;;;3.97;2.60;;;;;;;;;;5073649;28;20271;-47
2023/08/14 03:39:50;;;;;;;4.10;2.50;;;;;;;;;;5073944;28;20177;-47
2023/08/14 03:42:16;;;;;;;2.97;2.50;;;;;;;;;;5072531;28;20209;-49
2023/08/14 03:44:42;;;;;;;2.83;2.27;;;;;;;;;;5072049;28;20172;-49
2023/08/14 03:47:08;;;;;;;6.50;2.40;;;;;;;;;;5072333;28;20191;-47
2023/08/14 03:49:34;;;;;;;5.83;2.90;;;;;;;;;;5073543;28;20194;-50
2023/08/14 03:52:00;;;;;;;4.07;2.30;;;;;;;;;;5073069;28;20180;-49
2023/08/14 03:54:26;;;;;;;5.33;2.90;;;;;;;;;;5072840;28;20169;-49
2023/08/14 03:56:52;;;;;;;5.27;2.53;;;;;;;;;;5071355;28;20565;-49
2023/08/14 03:59:18;;;;;;;2.80;2.40;;;;;;;;;;5072344;28;20519;-48
2023/08/14 04:01:44;;;;;;;4.77;2.53;;;;;;;;;;5073445;28;20192;-52
2023/08/14 04:04:10;;;;;;;4.93;2.70;;;;;;;;;;5072843;28;20175;-48
2023/08/14 04:06:37;;;;;;;3.37;2.27;;;;;;;;;;5072995;28;20447;-49
2023/08/14 04:09:03;;;;;;;2.60;2.30;;;;;;;;;;5071748;28;20246;-51
2023/08/14 04:11:30;;;;;;;6.60;2.30;;;;;;;;;;5072569;28;20307;-50
2023/08/14 04:13:57;;;;;;;4.40;2.90;;;;;;;;;;5072146;28;20218;-48
2023/08/14 04:16:22;;;;;;;5.50;2.57;;;;;;;;;;5072417;28;20177;-48
2023/08/14 04:18:49;;;;;;;5.57;2.57;;;;;;;;;;5071835;28;20164;-51
2023/08/14 04:21:15;;;;;;;8.37;3.60;;;;;;;;;;5071824;28;20176;-48
2023/08/14 04:23:41;;;;;;;9.00;2.70;;;;;;;;;;5069811;28;20275;-51
2023/08/14 04:26:07;;;;;;;8.00;2.93;;;;;;;;;;5070064;28;20165;-52
2023/08/14 04:28:33;;;;;;;5.40;2.43;;;;;;;;;;5070256;28;20707;-48
2023/08/14 04:30:59;;;;;;;2.57;2.37;;;;;;;;;;5068829;28;20169;-48
2023/08/14 04:33:25;;;;;;;4.37;2.57;;;;;;;;;;5068649;28;20177;-50
2023/08/14 04:35:51;;;;;;;2.90;2.20;;;;;;;;;;5069279;28;20182;-50
2023/08/14 04:38:17;;;;;;;3.47;2.53;;;;;;;;;;5068706;28;20173;-48
2023/08/14 04:40:43;;;;;;;8.40;3.33;;;;;;;;;;5069279;28;20583;-49
2023/08/14 04:43:09;;;;;;;4.53;2.70;;;;;;;;;;5070517;28;20466;-49
2023/08/14 04:45:35;;;;;;;4.60;2.67;;;;;;;;;;5070913;28;20478;-47
2023/08/14 04:48:01;;;;;;;5.00;2.80;;;;;;;;;;5068832;28;20169;-48
2023/08/14 04:50:27;;;;;;;7.10;3.33;;;;;;;;;;5067910;28;20550;-47
2023/08/14 04:52:53;;;;;;;4.73;2.83;;;;;;;;;;5067375;28;20190;-49
2023/08/14 04:55:19;;;;;;;5.97;3.20;;;;;;;;;;5070382;28;20183;-49
2023/08/14 04:57:45;;;;;;;4.93;2.63;;;;;;;;;;5073759;28;20188;-48
2023/08/14 05:00:11;;;;;;;5.07;3.00;;;;;;;;;;5074856;28;20169;-48
2023/08/14 05:02:37;;;;;;;4.83;2.77;;;;;;;;;;5074085;28;20204;-49
2023/08/14 05:05:03;;;;;;;3.87;2.93;;;;;;;;;;5074120;28;20682;-47
2023/08/14 05:07:29;;;;;;;5.97;2.87;;;;;;;;;;5075308;28;20180;-47
2023/08/14 05:09:55;;;;;;;7.73;2.97;;;;;;;;;;5074761;28;20165;-49
2023/08/14 05:12:21;;;;;;;5.07;3.00;;;;;;;;;;5073740;28;20284;-48
2023/08/14 05:14:48;;;;;;;9.33;2.73;;;;;;;;;;5074187;28;20182;-50
2023/08/14 05:17:14;;;;;;;5.17;2.63;;;;;;;;;;5074379;28;20176;-47
2023/08/14 05:19:40;;;;;;;9.37;3.33;;;;;;;;;;5073812;28;20257;-49
2023/08/14 05:22:05;;;;;;;6.90;3.07;;;;;;;;;;5073814;28;20550;-50
2023/08/14 05:24:31;;;;;;;7.20;3.07;;;;;;;;;;5073656;28;20169;-48
2023/08/14 05:26:58;;;;;;;5.07;2.67;;;;;;;;;;5075378;28;20196;-48
2023/08/14 05:29:24;;;;;;;6.03;3.30;;;;;;;;;;5074147;28;20244;-48
2023/08/14 05:31:49;;;;;;;6.90;3.30;;;;;;;;;;5075251;28;20181;-47
2023/08/14 05:34:16;;;;;;;4.23;2.80;;;;;;;;;;5074570;28;20177;-50
2023/08/14 05:36:42;;;;;;;8.13;3.20;;;;;;;;;;5077179;28;20179;-48
2023/08/14 05:39:08;;;;;;;5.03;3.00;;;;;;;;;;5079132;28;20173;-48
2023/08/14 05:41:35;;;;;;;6.83;2.97;;;;;;;;;;5077995;28;20276;-49
2023/08/14 05:44:01;;;;;;;5.63;3.27;;;;;;;;;;5077617;28;20263;-50
2023/08/14 05:46:26;;;;;;;4.70;2.97;;;;;;;;;;5076964;28;20251;-48
2023/08/14 05:48:52;;;;;;;5.80;3.10;;;;;;;;;;5077895;28;20169;-49
2023/08/14 05:51:18;;;;;;;7.63;3.10;;;;;;;;;;5077059;28;20204;-51
2023/08/14 05:53:44;;;;;;;7.50;3.23;;;;;;;;;;5077343;28;20241;-48
2023/08/14 05:56:11;;;;;;;7.83;2.80;;;;;;;;;;5076359;28;20184;-52
2023/08/14 05:58:37;;;;;;;4.30;3.10;;;;;;;;;;5077949;28;20172;-54
2023/08/14 06:01:03;;;;;;;3.63;2.67;;;;;;;;;;5076731;28;20271;-54
2023/08/14 06:03:28;;;;;;;5.00;3.10;;;;;;;;;;5075426;28;20357;-51
2023/08/14 06:05:54;;;;;;;8.03;3.30;;;;;;;;;;5075294;28;20461;-51
2023/08/14 06:08:20;;;;;;;4.43;2.83;;;;;;;;;;5075034;28;20160;-51
2023/08/14 06:10:46;;;;;;;8.23;3.37;;;;;;;;;;5074815;28;20180;-48
2023/08/14 06:13:12;;;;;;;9.63;3.80;;;;;;;;;;5075982;28;20184;-51
2023/08/14 06:15:38;;;;;;;8.93;4.03;;;;;;;;;;5073989;28;20169;-50
2023/08/14 06:18:05;;;;;;;6.23;3.47;;;;;;;;;;5075067;28;20187;-53
2023/08/14 06:20:39;;;;;;;7.47;2.90;;;;;;;;;;5074520;28;20173;-51
2023/08/14 06:23:05;;;;;;;7.83;3.27;;;;;;;;;;5076482;28;20441;-49
2023/08/14 06:25:31;;;;;;;6.50;3.77;;;;;;;;;;5076752;28;20183;-50
2023/08/14 06:27:57;;;;;;;7.10;3.30;;;;;;;;;;5075692;28;20225;-51
2023/08/14 06:30:24;;;;;;;6.80;2.90;;;;;;;;;;5075846;28;20169;-48
2023/08/14 06:32:50;;;;;;;5.10;3.23;;;;;;;;;;5075934;28;20172;-48
2023/08/14 06:35:18;;;;;;;3.83;2.93;;;;;;;;;;5076410;28;20507;-53
2023/08/14 06:37:44;;;;;;;3.93;2.53;;;;;;;;;;5075720;28;20168;-48
2023/08/14 06:40:10;;;;;;;4.13;2.97;;;;;;;;;;5074752;28;20631;-52
2023/08/14 06:42:36;;;;;;;8.37;3.07;;;;;;;;;;5074037;28;20212;-48
2023/08/14 06:45:04;;;;;;;4.50;3.23;;;;;;;;;;5073866;28;20172;-51
2023/08/14 06:47:30;;;;;;;7.80;3.50;;;;;;;;;;5072102;28;20436;-50
2023/08/14 06:49:56;;;;;;;5.63;3.20;;;;;;;;;;5072862;28;20169;-47
2023/08/14 06:55:25;;;;;;;4.67;3.07;;;;;;;;;;5072889;28;20219;-48
2023/08/14 06:57:51;;;;;;;5.37;3.53;;;;;;;;;;5072876;28;20242;-47
2023/08/14 07:00:18;;;;;;;5.30;3.10;;;;;;;;;;5071861;28;20473;-54
2023/08/14 07:02:46;;;;;;;7.40;3.30;;;;;;;;;;5073797;28;20291;-49
2023/08/14 07:05:12;;;;;;;10.53;3.67;;;;;;;;;;5074111;28;20269;-48
2023/08/14 07:07:39;;;;;;;7.00;3.43;;;;;;;;;;5075045;28;20575;-48
2023/08/14 07:10:05;;;;;;;6.27;3.37;;;;;;;;;;5074991;28;20153;-53
2023/08/14 07:12:33;;;;;;;5.13;3.53;;;;;;;;;;5073791;28;20197;-49
2023/08/14 07:15:00;;;;;;;6.47;3.27;;;;;;;;;;5074859;28;20245;-50
2023/08/14 07:17:26;;;;;;;8.23;3.93;;;;;;;;;;5073939;28;20540;-52
2023/08/14 07:19:53;;;;;;;7.47;3.60;;;;;;;;;;5074211;28;20180;-49
2023/08/14 07:22:19;;;;;;;9.37;3.87;;;;;;;;;;5074364;28;20192;-51
2023/08/14 07:24:45;;;;;;;6.80;3.70;;;;;;;;;;5074542;28;20168;-49
2023/08/14 07:27:11;;;;;;;4.13;2.70;;;;;;;;;;5073689;28;20175;-47
2023/08/14 07:29:37;;;;;;;6.50;3.73;;;;;;;;;;5073587;28;20491;-49
2023/08/14 07:32:03;;;;;;;9.33;3.57;;;;;;;;;;5074233;28;20200;-51
2023/08/14 07:34:29;;;;;;;9.47;3.40;;;;;;;;;;5072585;28;20176;-48
2023/08/14 07:36:54;;;;;;;7.07;3.40;;;;;;;;;;5073773;28;20330;-52
2023/08/14 07:39:20;;;;;;;8.53;2.83;;;;;;;;;;5073479;28;20255;-49
2023/08/14 07:41:46;;;;;;;10.90;3.63;;;;;;;;;;5074670;28;20611;-51
2023/08/14 07:44:12;;;;;;;8.03;2.80;;;;;;;;;;5075606;28;20173;-48
2023/08/14 07:46:38;;;;;;;5.43;2.80;;;;;;;;;;5074385;28;20171;-51
2023/08/14 07:49:04;;;;;;;5.73;2.90;;;;;;;;;;5075134;28;20260;-53
2023/08/14 07:51:32;;;;;;;6.60;3.33;;;;;;;;;;5073164;28;20176;-49
2023/08/14 07:53:57;;;;;;;5.30;2.90;;;;;;;;;;5073229;28;20608;-47
2023/08/14 07:56:23;;;;;;;8.27;3.10;;;;;;;;;;5073557;28;20251;-48
2023/08/14 07:58:49;;;;;;;6.80;2.67;;;;;;;;;;5071879;28;20191;-49
2023/08/14 08:01:15;;;;;;;5.60;2.80;;;;;;;;;;5071870;28;20169;-49
2023/08/14 08:03:41;;;;;;;5.77;2.67;;;;;;;;;;5070917;28;20249;-49
2023/08/14 08:06:07;;;;;;;4.83;2.63;;;;;;;;;;5073341;28;20447;-51
2023/08/14 08:08:33;;;;;;;6.43;2.90;;;;;;;;;;5073153;28;20172;-47
2023/08/14 08:10:59;;;;;;;8.47;3.10;;;;;;;;;;5073623;28;20247;-50
2023/08/14 08:13:25;;;;;;;4.07;2.23;;;;;;;;;;5069607;28;20544;-47
2023/08/14 08:15:52;;;;;;;5.40;2.60;;;;;;;;;;5070636;28;20180;-48
2023/08/14 08:18:18;;;;;;;3.03;2.20;;;;;;;;;;5074185;28;20172;-48
2023/08/14 08:20:44;;;;;;;6.00;2.73;;;;;;;;;;5072511;28;20177;-53
2023/08/14 08:23:09;;;;;;;4.60;2.47;;;;;;;;;;5073371;28;20258;-50
2023/08/14 08:25:35;;;;;;;4.83;2.77;;;;;;;;;;5072507;28;20173;-49
2023/08/14 08:28:02;;;;;;;6.70;2.60;;;;;;;;;;5073917;28;20235;-47
2023/08/14 08:30:28;;;;;;;4.60;2.33;;;;;;;;;;5073806;28;20207;-49
2023/08/14 08:32:54;;;;;;;4.03;2.67;;;;;;;;;;5072982;28;20200;-51
2023/08/14 08:35:20;;;;;;;6.70;3.10;;;;;;;;;;5072779;28;20181;-51
2023/08/14 08:37:46;;;;;;;6.17;2.70;;;;;;;;;;5072461;28;20241;-48
2023/08/14 08:40:12;;;;;;;6.33;2.67;;;;;;;;;;5072036;28;20499;-47
2023/08/14 08:42:38;;;;;;;5.30;2.60;;;;;;;;;;5069409;28;20216;-51
2023/08/14 08:45:05;;;;;;;6.03;2.77;;;;;;;;;;5069775;28;20176;-49
2023/08/14 08:47:32;;;;;;;7.17;3.17;;;;;;;;;;5069772;28;20538;-50
2023/08/14 08:49:59;;;;;;;11.03;2.87;;;;;;;;;;5069720;28;20271;-50
2023/08/14 08:52:25;;;;;;;6.60;3.20;;;;;;;;;;5070929;28;20454;-47
2023/08/14 08:54:51;;;;;;;5.80;2.80;;;;;;;;;;5072180;28;20567;-49
2023/08/14 08:57:18;;;;;;;5.17;2.60;;;;;;;;;;5071488;28;20187;-51
2023/08/14 08:59:44;;;;;;;6.87;2.63;;;;;;;;;;5072075;28;20177;-51
2023/08/14 09:02:11;;;;;;;4.17;2.73;;;;;;;;;;5071650;28;20204;-49
2023/08/14 09:04:37;;;;;;;6.43;2.47;;;;;;;;;;5070798;28;20263;-51
2023/08/14 09:07:03;;;;;;;9.30;2.80;;;;;;;;;;5070736;28;20523;-50
2023/08/14 09:09:29;;;;;;;5.00;2.40;;;;;;;;;;5070948;28;20573;-49
2023/08/14 09:11:55;;;;;;;9.37;2.30;;;;;;;;;;5074957;28;20227;-47
2023/08/14 09:14:22;;;;;;;4.67;2.20;;;;;;;;;;5076020;28;20177;-49
2023/08/14 09:16:52;;;;;;;4.97;2.77;;;;;;;;;;5077816;28;20180;-48
2023/08/14 09:19:18;;;;;;;5.53;2.60;;;;;;;;;;5077347;28;20263;-50
2023/08/14 09:21:45;;;;;;;8.87;3.00;;;;;;;;;;5078155;28;20196;-50
2023/08/14 09:24:14;;;;;;;7.53;2.67;;;;;;;;;;5078038;28;20196;-51
2023/08/14 09:26:43;;;;;;;5.57;2.23;;;;;;;;;;5077038;28;20529;-52
2023/08/14 09:29:09;;;;;;;6.53;2.53;;;;;;;;;;5076352;28;20239;-49
2023/08/14 09:31:35;;;;;;;6.70;2.37;;;;;;;;;;5076439;28;20165;-52
2023/08/14 09:34:01;;;;;;;13.70;3.87;;;;;;;;;;5076273;28;20179;-51
2023/08/14 09:36:34;;;;;;;5.60;2.50;;;;;;;;;;5075823;28;20255;-47
2023/08/14 09:39:01;;;;;;;4.67;2.43;;;;;;;;;;5076478;28;20192;-51
2023/08/14 09:41:27;;;;;;;4.47;2.23;;;;;;;;;;5075399;28;20168;-53
2023/08/14 09:43:53;;;;;;;4.07;2.60;;;;;;;;;;5075444;28;20184;-51
2023/08/14 09:46:19;;;;;;;4.93;2.87;;;;;;;;;;5075855;28;20165;-51
2023/08/14 09:48:46;;;;;;;8.10;2.37;;;;;;;;;;5075267;28;20280;-50
2023/08/14 09:51:13;;;;;;;6.30;2.97;;;;;;;;;;5076922;28;20173;-51
2023/08/14 09:53:54;;;;;;;5.63;3.10;;;;;;;;;;5076267;28;20173;-50
2023/08/14 09:56:21;;;;;;;6.43;3.17;;;;;;;;;;5074951;28;20223;-51
2023/08/14 09:58:47;;;;;;;8.23;2.87;;;;;;;;;;5075147;28;20183;-50
2023/08/14 10:01:15;;;;;;;5.20;2.67;;;;;;;;;;5076216;28;20227;-51
2023/08/14 10:03:41;;;;;;;4.37;2.00;;;;;;;;;;5075602;28;20196;-50
2023/08/14 10:06:10;;;;;;;4.33;2.40;;;;;;;;;;5074042;28;20165;-49
2023/08/14 10:08:37;;;;;;;3.77;2.07;;;;;;;;;;5073680;28;20171;-50
2023/08/14 10:11:03;;;;;;;4.03;2.30;;;;;;;;;;5074534;28;20222;-51
2023/08/14 10:13:30;;;;;;;4.20;2.07;;;;;;;;;;5073965;28;20501;-49
2023/08/14 10:15:56;;;;;;;3.87;2.23;;;;;;;;;;5073157;28;20533;-54
2023/08/14 10:18:23;;;;;;;4.50;2.20;;;;;;;;;;5072282;28;20177;-52
2023/08/14 10:20:50;;;;;;;4.67;2.47;;;;;;;;;;5072217;28;20172;-54
2023/08/14 10:23:17;;;;;;;3.83;2.57;;;;;;;;;;5071338;28;20218;-52
2023/08/14 10:25:47;;;;;;;5.57;2.43;;;;;;;;;;5073395;28;20825;-54
2023/08/14 10:28:13;;;;;;;7.07;2.80;;;;;;;;;;5073591;28;20243;-49
2023/08/14 10:30:41;;;;;;;3.93;2.00;;;;;;;;;;5072388;28;20169;-50
2023/08/14 10:33:08;;;;;;;2.93;2.00;;;;;;;;;;5073294;28;20173;-51
2023/08/14 10:35:44;;;;;;;4.67;2.47;;;;;;;;;;5073539;28;20169;-51
2023/08/14 10:38:10;;;;;;;6.80;2.80;;;;;;;;;;5074578;28;20179;-52
2023/08/14 10:40:36;;;;;;;5.13;2.37;;;;;;;;;;5075376;28;20172;-49
2023/08/14 10:43:05;;;;;;;6.27;2.20;;;;;;;;;;5075006;28;20204;-51
2023/08/14 10:45:31;;;;;;;2.85;1.92;;;;;;;;;;5074872;28;20169;-52
2023/08/14 10:48:07;;;;;;;5.27;2.43;;;;;;;;;;5074018;28;20578;-49
2023/08/14 10:50:33;;;;;;;4.47;2.00;;;;;;;;;;5074925;28;20176;-49
2023/08/14 10:53:02;;;;;;;4.93;2.00;;;;;;;;;;5075036;28;20545;-51
2023/08/14 10:55:47;;;;;;;3.93;2.40;;;;;;;;;;5072419;28;20216;-48
2023/08/14 10:58:31;;;;;;;5.88;2.53;;;;;;;;;;5071702;28;20207;-50
2023/08/14 11:01:01;;;;;;;5.87;2.33;;;;;;;;;;5070965;28;20174;-47
2023/08/14 11:03:27;;;;;;;3.70;2.17;;;;;;;;;;5070519;28;20204;-51
2023/08/14 11:05:54;;;;;;;3.72;2.30;;;;;;;;;;5069001;28;20173;-49
2023/08/14 11:08:21;;;;;;;6.93;1.97;;;;;;;;;;5067648;28;20273;-49
2023/08/14 11:10:48;;;;;;;4.80;2.33;;;;;;;;;;5068430;28;20650;-48
2023/08/14 11:13:14;;;;;;;7.75;3.13;;;;;;;;;;5069741;28;20184;-50
2023/08/14 11:15:41;;;;;;;7.57;2.25;;;;;;;;;;5069234;28;20267;-47
2023/08/14 11:18:11;;;;;;;4.60;2.17;;;;;;;;;;5068125;28;20334;-50
2023/08/14 11:20:38;;;;;;;3.67;2.00;;;;;;;;;;5062375;28;20179;-51
2023/08/14 11:23:05;;;;;;;7.80;1.95;;;;;;;;;;5063502;28;20196;-50
2023/08/14 11:25:31;;;;;;;5.00;2.20;;;;;;;;;;5066388;28;20165;-47
2023/08/14 11:27:57;;;;;;;3.33;2.20;;;;;;;;;;5067103;28;20370;-48
2023/08/14 11:30:24;;;;;;;3.80;2.05;;;;;;;;;;5067832;28;20199;-51
2023/08/14 11:32:51;;;;;;;4.65;2.70;;;;;;;;;;5068254;28;20165;-51
2023/08/14 11:35:17;;;;;;;3.55;2.42;;;;;;;;;;5068497;28;20224;-50
2023/08/14 11:37:45;;;;;;;6.85;2.30;;;;;;;;;;5067923;28;20219;-50
2023/08/14 11:40:11;;;;;;;7.28;2.42;;;;;;;;;;5068245;28;20637;-51
2023/08/14 11:42:38;;;;;;;5.32;2.40;;;;;;;;;;5067336;28;20219;-53
2023/08/14 11:45:05;;;;;;;3.47;2.13;;;;;;;;;;5068019;28;20164;-49
2023/08/14 11:47:35;;;;;;;5.28;2.60;;;;;;;;;;5065385;28;20169;-51
2023/08/14 11:50:01;;;;;;;6.45;1.95;;;;;;;;;;5064490;28;20172;-49
2023/08/14 11:52:27;;;;;;;5.05;2.28;;;;;;;;;;5064340;28;20514;-52
2023/08/14 11:54:54;;;;;;;3.60;2.17;;;;;;;;;;5063871;28;20346;-49
2023/08/14 11:57:23;;;;;;;6.68;2.53;;;;;;;;;;5063642;28;20253;-52
2023/08/14 11:59:49;;;;;;;3.80;2.33;;;;;;;;;;5063184;28;20480;-49
2023/08/14 12:02:18;;;;;;;5.30;2.00;;;;;;;;;;5064370;28;20219;-50
2023/08/14 12:04:44;;;;;;;3.55;2.13;;;;;;;;;;5065781;28;20640;-52
2023/08/14 12:07:10;;;;;;;6.40;2.95;;;;;;;;;;5064512;28;20504;-50
2023/08/14 12:09:37;;;;;;;3.95;2.22;;;;;;;;;;5063980;28;20172;-47
2023/08/14 12:12:04;;;;;;;2.67;1.88;;;;;;;;;;5064102;28;20169;-48
2023/08/14 12:14:45;;;;;;;3.33;2.13;;;;;;;;;;5064992;28;20180;-48
2023/08/14 12:17:12;;;;;;;3.28;2.30;;;;;;;;;;5066901;28;20678;-48
2023/08/14 12:19:41;;;;;;;4.35;2.50;;;;;;;;;;5065556;28;20179;-50
2023/08/14 12:22:07;;;;;;;3.63;2.38;;;;;;;;;;5064743;28;20204;-49
2023/08/14 12:24:40;;;;;;;1.77;1.60;;;;;;;;;;5065176;28;20416;-47
2023/08/14 12:27:19;;;;;;;6.30;2.53;;;;;;;;;;5067452;28;20555;-48
2023/08/14 12:29:46;;;;;;;3.72;2.15;;;;;;;;;;5066725;28;20199;-51
2023/08/14 12:32:12;;;;;;;2.53;1.85;;;;;;;;;;5065106;28;20165;-49
2023/08/14 12:34:38;;;;;;;4.25;2.40;;;;;;;;;;5064693;28;20575;-52
2023/08/14 12:37:05;;;;;;;2.17;1.77;;;;;;;;;;5065285;28;20165;-47
2023/08/14 12:39:32;;;;;;;5.72;2.63;;;;;;;;;;5064994;28;20184;-50
2023/08/14 12:42:00;;;;;;;6.35;2.20;;;;;;;;;;5066373;28;20215;-49
2023/08/14 12:44:26;;;;;;;3.30;2.00;;;;;;;;;;5066041;28;20177;-52
2023/08/14 12:46:52;;;;;;;3.90;1.98;;;;;;;;;;5066368;28;20738;-47
2023/08/14 12:49:19;;;;;;;6.47;2.05;;;;;;;;;;5065380;28;20277;-53
2023/08/14 12:51:45;;;;;;;3.53;1.80;;;;;;;;;;5067377;28;20564;-49
2023/08/14 12:54:11;;;;;;;2.95;1.95;;;;;;;;;;5067613;28;20180;-48
2023/08/14 12:56:38;;;;;;;5.55;2.30;;;;;;;;;;5065829;28;20433;-53
2023/08/14 12:59:04;;;;;;;2.58;2.20;;;;;;;;;;5065073;28;20179;-49
2023/08/14 13:01:30;;;;;;;4.15;2.45;;;;;;;;;;5064015;28;20572;-51
2023/08/14 13:03:56;;;;;;;5.00;1.95;;;;;;;;;;5064682;28;20193;-48
2023/08/14 13:06:22;;;;;;;6.18;2.30;;;;;;;;;;5065082;28;20264;-50
2023/08/14 13:08:48;;;;;;;5.05;2.30;;;;;;;;;;5063197;28;20195;-51
2023/08/14 13:11:15;;;;;;;3.60;2.15;;;;;;;;;;5064505;28;20439;-49
2023/08/14 13:13:41;;;;;;;4.00;2.30;;;;;;;;;;5064181;28;20510;-49
2023/08/14 13:16:07;;;;;;;2.30;2.10;;;;;;;;;;5065708;28;20598;-51
2023/08/14 13:18:33;;;;;;;8.45;2.17;;;;;;;;;;5066432;28;20549;-48
2023/08/14 13:21:00;;;;;;;4.60;2.30;;;;;;;;;;5066238;28;20568;-52
2023/08/14 13:23:26;;;;;;;2.78;1.80;;;;;;;;;;5068867;28;20192;-51
2023/08/14 13:25:52;;;;;;;3.42;2.10;;;;;;;;;;5067145;28;20169;-50
2023/08/14 13:28:18;;;;;;;3.75;2.10;;;;;;;;;;5064829;28;20236;-51
2023/08/14 13:30:44;;;;;;;3.85;2.42;;;;;;;;;;5064737;28;20173;-52
2023/08/14 13:33:11;;;;;;;4.80;2.05;;;;;;;;;;5063548;28;20204;-49
2023/08/14 13:35:37;;;;;;;2.95;2.30;;;;;;;;;;5062240;28;20169;-48
2023/08/14 13:38:04;;;;;;;5.53;2.00;;;;;;;;;;5062370;28;20177;-48
2023/08/14 13:40:30;;;;;;;5.55;2.38;;;;;;;;;;5061908;28;20452;-50
2023/08/14 13:42:56;;;;;;;3.05;2.05;;;;;;;;;;5061412;28;20204;-47
2023/08/14 13:45:23;;;;;;;2.97;1.92;;;;;;;;;;5062990;28;20157;-49
2023/08/14 13:47:49;;;;;;;5.22;2.58;;;;;;;;;;5063597;28;20173;-49
2023/08/14 13:50:15;;;;;;;3.67;2.30;;;;;;;;;;5064985;28;20423;-54
2023/08/14 13:52:41;;;;;;;3.47;2.00;;;;;;;;;;5067284;28;20295;-48
2023/08/14 13:55:07;;;;;;;2.72;2.40;;;;;;;;;;5065595;28;20279;-51
2023/08/14 13:57:33;;;;;;;5.95;2.00;;;;;;;;;;5065737;28;20185;-51
2023/08/14 14:00:02;;;;;;;4.72;2.30;;;;;;;;;;5067234;28;20169;-51
2023/08/14 14:02:28;;;;;;;2.80;1.73;;;;;;;;;;5068855;28;20189;-49
2023/08/14 14:04:54;;;;;;;2.83;2.17;;;;;;;;;;5068438;28;20434;-47
2023/08/14 14:07:20;;;;;;;3.88;2.17;;;;;;;;;;5067888;28;20622;-50
2023/08/14 14:09:46;;;;;;;3.03;2.00;;;;;;;;;;5068252;28;20165;-49
2023/08/14 14:12:12;;;;;;;4.65;2.17;;;;;;;;;;5068851;28;20542;-49
2023/08/14 14:14:38;;;;;;;3.17;2.10;;;;;;;;;;5068056;28;20379;-47
2023/08/14 14:17:04;;;;;;;5.18;2.67;;;;;;;;;;5066863;28;20573;-47
2023/08/14 14:19:30;;;;;;;5.97;2.40;;;;;;;;;;5063437;28;20544;-47
2023/08/14 14:21:57;;;;;;;4.55;2.22;;;;;;;;;;5063337;28;20236;-47
2023/08/14 14:24:24;;;;;;;3.33;2.53;;;;;;;;;;5064710;28;20381;-49
2023/08/14 14:26:50;;;;;;;4.85;2.40;;;;;;;;;;5066035;28;20165;-52
2023/08/14 14:29:16;;;;;;;4.78;2.55;;;;;;;;;;5065663;28;20367;-49
2023/08/14 14:31:42;;;;;;;4.75;2.53;;;;;;;;;;5065824;28;20523;-50
2023/08/14 14:34:09;;;;;;;3.50;2.22;;;;;;;;;;5065989;28;20172;-50
2023/08/14 14:36:34;;;;;;;3.83;2.30;;;;;;;;;;5067230;28;20172;-48
2023/08/14 14:39:01;;;;;;;2.53;1.88;;;;;;;;;;5066327;28;20168;-48
2023/08/14 14:41:28;;;;;;;4.13;1.90;;;;;;;;;;5065826;28;20417;-49
2023/08/14 14:43:54;;;;;;;4.10;1.98;;;;;;;;;;5061912;28;20236;-48